createdAt,value
2023-11-19T00:02:13.095Z,3.50
2023-11-19T00:04:44.077Z,3.20
2023-11-19T00:07:15.211Z,3.90
2023-11-19T00:09:46.025Z,4.10
2023-11-19T00:12:16.957Z,3.70
2023-11-19T00:14:47.887Z,3.80
2023-11-19T00:17:18.663Z,4.50
2023-11-19T00:19:50.488Z,3.90
2023-11-19T00:22:22.959Z,4.60
2023-11-19T00:24:53.966Z,3.40
2023-11-19T00:27:25.384Z,3.60
2023-11-19T00:29:56.411Z,3.40
2023-11-19T00:32:27.718Z,3.60
2023-11-19T00:34:58.422Z,3.30
2023-11-19T00:37:29.317Z,4.00
2023-11-19T00:40:00.677Z,4.10
2023-11-19T00:42:31.454Z,3.50
2023-11-19T00:45:02.660Z,3.90
2023-11-19T00:47:33.802Z,2.90
2023-11-19T00:50:04.662Z,3.70
2023-11-19T00:52:35.411Z,3.50
2023-11-19T00:55:08.346Z,3.60
2023-11-19T00:57:39.391Z,3.10
2023-11-19T01:00:20.268Z,4.20
2023-11-19T01:02:52.786Z,3.30
2023-11-19T01:05:24.436Z,3.80
2023-11-19T01:07:55.872Z,3.30
2023-11-19T01:10:27.241Z,3.00
2023-11-19T01:12:58.608Z,3.60
2023-11-19T01:15:29.701Z,3.20
2023-11-19T01:18:00.775Z,3.10
2023-11-19T01:20:31.515Z,3.20
2023-11-19T01:23:02.192Z,3.40
2023-11-19T01:25:33.091Z,3.20
2023-11-19T01:28:04.046Z,3.10
2023-11-19T01:30:34.924Z,3.30
2023-11-19T01:33:08.768Z,3.20
2023-11-19T01:38:09.705Z,3.40
2023-11-19T01:40:40.561Z,3.20
2023-11-19T01:43:12.743Z,3.20
2023-11-19T01:45:43.600Z,2.80
2023-11-19T01:48:16.410Z,3.30
2023-11-19T01:50:47.760Z,2.90
2023-11-19T01:53:19.265Z,2.50
2023-11-19T01:55:50.806Z,2.90
2023-11-19T01:58:21.666Z,3.10
2023-11-19T02:00:53.213Z,2.80
2023-11-19T02:03:26.996Z,3.20
2023-11-19T02:08:27.350Z,3.30
2023-11-19T02:10:58.939Z,2.90
2023-11-19T02:13:30.894Z,3.40
2023-11-19T02:16:03.306Z,3.00
2023-11-19T02:18:34.076Z,3.40
2023-11-19T02:21:06.596Z,3.30
2023-11-19T02:23:37.707Z,3.00
2023-11-19T02:26:16.314Z,2.80
2023-11-19T02:28:47.576Z,2.50
2023-11-19T02:31:18.603Z,2.60
2023-11-19T02:33:51.135Z,2.50
2023-11-19T02:36:22.878Z,2.90
2023-11-19T02:38:53.810Z,2.90
2023-11-19T02:41:25.396Z,3.60
2023-11-19T02:43:56.178Z,2.70
2023-11-19T02:46:27.630Z,2.50
2023-11-19T02:48:58.516Z,2.80
2023-11-19T02:51:31.566Z,2.60
2023-11-19T02:54:02.601Z,3.10
2023-11-19T02:56:37.941Z,2.60
2023-11-19T02:59:19.429Z,3.30
2023-11-19T03:01:51.602Z,2.70
2023-11-19T03:04:24.295Z,2.60
2023-11-19T03:06:55.513Z,2.60
2023-11-19T03:09:26.537Z,3.20
2023-11-19T03:11:57.431Z,2.70
2023-11-19T03:14:28.601Z,2.90
2023-11-19T03:16:59.498Z,2.90
2023-11-19T03:19:30.825Z,2.70
2023-11-19T03:22:03.648Z,3.00
2023-11-19T03:24:34.703Z,3.50
2023-11-19T03:27:06.032Z,3.50
2023-11-19T03:29:36.784Z,2.90
2023-11-19T03:32:09.071Z,2.80
2023-11-19T03:34:39.805Z,2.80
2023-11-19T03:37:10.856Z,3.70
2023-11-19T03:39:41.488Z,3.00
2023-11-19T03:42:14.497Z,2.60
2023-11-19T03:44:45.247Z,2.40
2023-11-19T03:47:16.265Z,3.20
2023-11-19T03:49:51.826Z,2.40
2023-11-19T03:52:22.908Z,2.50
2023-11-19T03:54:54.423Z,2.80
2023-11-19T03:57:25.799Z,4.60
2023-11-19T03:59:57.155Z,2.40
2023-11-19T04:02:29.690Z,2.50
2023-11-19T04:05:00.455Z,2.80
2023-11-19T04:07:31.199Z,2.40
2023-11-19T04:10:02.145Z,2.30
2023-11-19T04:12:32.919Z,2.30
2023-11-19T04:15:04.660Z,2.90
2023-11-19T04:17:35.363Z,2.50
2023-11-19T04:20:11.861Z,2.30
2023-11-19T04:22:42.886Z,2.30
2023-11-19T04:25:15.251Z,3.00
2023-11-19T04:27:46.189Z,2.30
2023-11-19T04:30:17.778Z,2.30
2023-11-19T04:32:49.910Z,2.60
2023-11-19T04:35:21.488Z,2.50
2023-11-19T04:37:52.249Z,2.70
2023-11-19T04:40:24.090Z,2.10
2023-11-19T04:42:55.156Z,3.00
2023-11-19T04:45:25.875Z,3.30
2023-11-19T04:47:56.702Z,2.20
2023-11-19T04:50:28.437Z,2.30
2023-11-19T04:53:01.200Z,3.10
2023-11-19T04:55:32.259Z,2.70
2023-11-19T04:58:03.078Z,1.80
2023-11-19T05:00:34.491Z,2.70
2023-11-19T05:03:05.290Z,2.10
2023-11-19T05:05:36.192Z,2.60
2023-11-19T05:08:07.443Z,2.80
2023-11-19T05:10:38.790Z,2.10
2023-11-19T05:13:09.602Z,2.50
2023-11-19T05:15:40.725Z,2.70
2023-11-19T05:18:11.736Z,2.50
2023-11-19T05:20:42.901Z,2.10
2023-11-19T05:25:48.873Z,2.20
2023-11-19T05:28:19.880Z,2.20
2023-11-19T05:30:50.675Z,2.10
2023-11-19T05:33:21.722Z,2.10
2023-11-19T05:35:52.481Z,2.60
2023-11-19T05:38:23.416Z,2.40
2023-11-19T05:40:54.275Z,2.20
2023-11-19T05:43:25.080Z,2.20
2023-11-19T05:45:55.921Z,1.90
2023-11-19T05:48:28.538Z,2.10
2023-11-19T05:50:59.193Z,4.30
2023-11-19T05:53:30.592Z,1.90
2023-11-19T05:56:05.232Z,2.20
2023-11-19T05:58:37.055Z,2.30
2023-11-19T06:01:09.865Z,1.90
2023-11-19T06:03:41.018Z,2.40
2023-11-19T06:06:13.291Z,1.70
2023-11-19T06:08:44.575Z,2.10
2023-11-19T06:11:19.985Z,1.80
2023-11-19T06:13:52.334Z,2.00
2023-11-19T06:16:23.328Z,1.90
2023-11-19T06:18:55.025Z,2.10
2023-11-19T06:21:26.315Z,3.60
2023-11-19T06:23:57.153Z,2.10
2023-11-19T06:26:28.136Z,2.30
2023-11-19T06:28:59.246Z,2.10
2023-11-19T06:31:30.195Z,2.70
2023-11-19T06:34:01.182Z,2.50
2023-11-19T06:36:32.205Z,4.20
2023-11-19T06:39:03.052Z,2.10
2023-11-19T06:41:34.185Z,2.50
2023-11-19T06:44:05.822Z,2.60
2023-11-19T06:46:37.098Z,2.40
2023-11-19T06:49:08.603Z,3.20
2023-11-19T06:51:42.944Z,2.70
2023-11-19T06:54:14.023Z,3.10
2023-11-19T06:56:45.415Z,2.50
2023-11-19T06:59:17.608Z,2.40
2023-11-19T07:01:48.579Z,2.90
2023-11-19T07:04:19.515Z,3.00
2023-11-19T07:06:50.672Z,2.40
2023-11-19T07:09:22.398Z,3.10
2023-11-19T07:11:54.045Z,2.50
2023-11-19T07:14:24.991Z,2.80
2023-11-19T07:16:57.009Z,2.60
2023-11-19T07:19:28.174Z,3.90
2023-11-19T07:21:58.964Z,3.00
2023-11-19T07:24:30.479Z,2.80
2023-11-19T07:27:01.911Z,2.80
2023-11-19T07:29:34.214Z,2.40
2023-11-19T07:32:06.404Z,2.60
2023-11-19T07:34:38.324Z,2.30
2023-11-19T07:37:09.475Z,3.30
2023-11-19T07:39:42.602Z,2.40
2023-11-19T07:42:13.561Z,2.20
2023-11-19T07:44:45.474Z,3.10
2023-11-19T07:47:16.393Z,2.40
2023-11-19T07:49:47.469Z,4.50
2023-11-19T07:52:21.893Z,3.30
2023-11-19T07:54:53.317Z,1.60
2023-11-19T07:57:25.213Z,1.80
2023-11-19T07:59:56.288Z,3.00
2023-11-19T08:02:27.321Z,4.20
2023-11-19T08:04:58.896Z,1.70
2023-11-19T08:07:29.828Z,1.70
2023-11-19T08:10:01.380Z,2.20
2023-11-19T08:12:32.580Z,11.20
2023-11-19T08:15:03.479Z,1.50
2023-11-19T08:17:34.374Z,1.50
2023-11-19T08:20:06.380Z,2.40
2023-11-19T08:22:37.852Z,3.40
2023-11-19T08:25:10.715Z,1.90
2023-11-19T08:27:42.084Z,1.80
2023-11-19T08:30:14.792Z,1.50
2023-11-19T08:32:45.566Z,1.40
2023-11-19T08:35:17.798Z,2.10
2023-11-19T08:37:49.007Z,1.10
2023-11-19T08:40:21.253Z,1.80
2023-11-19T08:42:52.490Z,2.10
2023-11-19T08:45:23.388Z,2.00
2023-11-19T08:47:54.797Z,2.40
2023-11-19T08:50:26.078Z,2.30
2023-11-19T08:52:57.603Z,2.00
2023-11-19T08:55:29.529Z,1.40
2023-11-19T08:58:02.136Z,1.50
2023-11-19T09:00:33.895Z,1.60
2023-11-19T09:03:05.454Z,1.80
2023-11-19T09:05:37.024Z,1.20
2023-11-19T09:08:09.844Z,1.20
2023-11-19T09:10:41.293Z,1.40
2023-11-19T09:13:12.324Z,1.60
2023-11-19T09:15:43.803Z,1.80
2023-11-19T09:18:15.081Z,1.50
2023-11-19T09:20:46.658Z,1.60
2023-11-19T09:23:17.840Z,3.50
2023-11-19T09:25:48.874Z,3.60
2023-11-19T09:28:20.009Z,4.50
2023-11-19T09:30:51.052Z,4.50
2023-11-19T09:33:22.581Z,4.40
2023-11-19T09:35:54.499Z,9.50
2023-11-19T09:38:25.757Z,7.50
2023-11-19T09:40:58.432Z,4.10
2023-11-19T09:43:30.783Z,4.20
2023-11-19T09:46:07.991Z,4.30
2023-11-19T09:48:41.237Z,4.40
2023-11-19T09:51:13.637Z,4.40
2023-11-19T09:53:44.724Z,3.80
2023-11-19T09:56:18.249Z,4.70
2023-11-19T09:58:49.817Z,4.10
2023-11-19T10:01:26.504Z,4.30
2023-11-19T10:04:01.014Z,4.00
2023-11-19T10:06:34.435Z,3.90
2023-11-19T10:09:06.590Z,4.70
2023-11-19T10:11:37.606Z,3.70
2023-11-19T10:14:08.858Z,4.70
2023-11-19T10:16:40.597Z,3.90
2023-11-19T10:19:15.018Z,3.80
2023-11-19T10:21:48.135Z,5.80
2023-11-19T10:26:53.317Z,5.00
2023-11-19T10:29:26.047Z,4.50
2023-11-19T10:32:24.059Z,3.90
2023-11-19T10:34:52.777Z,3.60
2023-11-19T10:37:34.336Z,5.10
2023-11-19T10:40:06.883Z,5.50
2023-11-19T10:42:37.972Z,5.30
2023-11-19T10:45:26.243Z,4.90
2023-11-19T10:48:00.160Z,4.40
2023-11-19T10:50:31.805Z,4.80
2023-11-19T10:53:04.498Z,5.10
2023-11-19T10:55:37.263Z,4.50
2023-11-19T10:58:09.651Z,4.50
2023-11-19T11:00:47.356Z,3.70
2023-11-19T11:03:21.583Z,4.10
2023-11-19T11:05:53.922Z,5.30
2023-11-19T11:08:25.092Z,4.50
2023-11-19T11:10:58.910Z,5.10
2023-11-19T11:16:02.715Z,4.10
2023-11-19T11:18:33.923Z,4.60
2023-11-19T11:21:10.739Z,4.20
2023-11-19T11:24:15.183Z,4.80
2023-11-19T11:27:19.408Z,4.50
2023-11-19T11:32:36.196Z,4.90
2023-11-19T11:35:22.369Z,4.80
2023-11-19T11:37:58.471Z,5.40
2023-11-19T11:40:29.558Z,5.00
2023-11-19T11:43:01.088Z,4.40
2023-11-19T11:45:44.619Z,4.20
2023-11-19T11:48:18.537Z,6.00
2023-11-19T11:53:27.648Z,4.20
2023-11-19T11:56:05.208Z,3.80
2023-11-19T11:58:40.242Z,5.40
2023-11-19T12:01:21.471Z,4.40
2023-11-19T12:03:58.250Z,3.90
2023-11-19T12:06:31.461Z,4.20
2023-11-19T12:09:06.504Z,3.60
2023-11-19T12:11:38.950Z,4.30
2023-11-19T12:14:10.457Z,3.90
2023-11-19T12:16:42.301Z,4.00
2023-11-19T12:19:14.867Z,5.00
2023-11-19T12:21:47.035Z,4.00
2023-11-19T12:24:18.881Z,5.40
2023-11-19T12:26:53.823Z,4.50
2023-11-19T12:29:25.045Z,5.00
2023-11-19T12:34:38.028Z,5.30
2023-11-19T12:37:11.060Z,4.20
2023-11-19T12:39:42.316Z,3.80
2023-11-19T12:42:14.585Z,4.00
2023-11-19T12:44:58.951Z,4.90
2023-11-19T12:47:31.385Z,6.50
2023-11-19T12:50:02.736Z,5.30
2023-11-19T12:52:34.085Z,3.60
2023-11-19T12:55:05.273Z,4.40
2023-11-19T12:57:43.956Z,3.80
2023-11-19T13:00:24.644Z,5.80
2023-11-19T13:02:58.022Z,4.20
2023-11-19T13:05:35.247Z,4.70
2023-11-19T13:08:08.213Z,4.30
2023-11-19T13:10:55.231Z,4.70
2023-11-19T13:13:26.316Z,5.10
2023-11-19T13:16:04.315Z,5.80
2023-11-19T13:21:09.932Z,4.20
2023-11-19T13:23:41.056Z,5.40
2023-11-19T13:26:12.107Z,4.60
2023-11-19T13:28:43.152Z,4.90
2023-11-19T13:31:14.258Z,5.30
2023-11-19T13:33:45.547Z,5.00
2023-11-19T13:36:17.836Z,4.30
2023-11-19T13:38:49.215Z,4.60
2023-11-19T13:41:21.813Z,4.00
2023-11-19T13:43:52.766Z,3.60
2023-11-19T13:46:23.953Z,4.00
2023-11-19T13:48:55.007Z,4.60
2023-11-19T13:51:27.132Z,3.80
2023-11-19T13:53:58.434Z,4.70
2023-11-19T13:56:29.702Z,4.40
2023-11-19T13:59:02.121Z,3.30
2023-11-19T14:01:33.488Z,3.90
2023-11-19T14:04:04.587Z,4.50
2023-11-19T14:06:35.721Z,4.60
2023-11-19T14:09:09.184Z,7.00
2023-11-19T14:11:40.410Z,5.60
2023-11-19T14:14:11.628Z,4.00
2023-11-19T14:16:43.013Z,6.60
2023-11-19T14:19:15.144Z,3.10
2023-11-19T14:21:46.630Z,4.60
2023-11-19T14:24:17.902Z,4.00
2023-11-19T14:26:52.366Z,4.40
2023-11-19T14:29:23.819Z,4.90
2023-11-19T14:31:55.267Z,4.40
2023-11-19T14:34:27.594Z,4.50
2023-11-19T14:36:58.934Z,6.30
2023-11-19T14:39:32.308Z,3.90
2023-11-19T14:42:05.909Z,5.00
2023-11-19T14:44:37.559Z,7.00
2023-11-19T14:47:09.353Z,5.00
2023-11-19T14:49:40.603Z,3.40
2023-11-19T14:54:47.172Z,4.70
2023-11-19T14:57:18.544Z,4.50
2023-11-19T14:59:49.505Z,4.70
2023-11-19T15:02:20.789Z,4.80
2023-11-19T15:04:51.985Z,4.40
2023-11-19T15:07:24.123Z,4.70
2023-11-19T15:09:55.253Z,3.90
2023-11-19T15:12:28.115Z,6.30
2023-11-19T15:14:59.200Z,4.60
2023-11-19T15:17:30.919Z,5.50
2023-11-19T15:20:02.126Z,4.90
2023-11-19T15:22:33.665Z,4.30
2023-11-19T15:25:04.618Z,4.20
2023-11-19T15:27:35.669Z,2.90
2023-11-19T15:30:09.906Z,4.20
2023-11-19T15:32:41.038Z,4.90
2023-11-19T15:35:14.883Z,3.90
2023-11-19T15:37:46.214Z,3.50
2023-11-19T15:40:19.402Z,5.70
2023-11-19T15:42:50.601Z,6.10
2023-11-19T15:45:21.520Z,3.30
2023-11-19T15:47:53.337Z,4.40
2023-11-19T15:50:24.254Z,7.40
2023-11-19T15:52:55.388Z,5.90
2023-11-19T15:55:26.452Z,4.70
2023-11-19T15:57:57.487Z,5.90
2023-11-19T16:00:28.314Z,4.50
2023-11-19T16:02:59.526Z,4.40
2023-11-19T16:05:30.918Z,4.50
2023-11-19T16:08:02.669Z,4.00
2023-11-19T16:10:33.796Z,3.00
2023-11-19T16:13:05.169Z,4.90
2023-11-19T16:15:37.133Z,6.10
2023-11-19T16:18:10.972Z,3.20
2023-11-19T16:23:13.322Z,6.20
2023-11-19T16:25:44.308Z,4.10
2023-11-19T16:28:15.275Z,9.40
2023-11-19T16:30:46.409Z,7.40
2023-11-19T16:33:25.134Z,5.20
2023-11-19T16:36:01.814Z,6.10
2023-11-19T16:38:32.905Z,5.00
2023-11-19T16:41:05.916Z,4.20
2023-11-19T16:43:37.072Z,9.20
2023-11-19T16:46:09.273Z,4.00
2023-11-19T16:48:40.426Z,4.80
2023-11-19T16:51:16.602Z,5.80
2023-11-19T16:53:52.200Z,4.10
2023-11-19T16:56:23.321Z,6.30
2023-11-19T16:58:54.314Z,4.50
2023-11-19T17:01:25.646Z,5.70
2023-11-19T17:03:56.935Z,6.30
2023-11-19T17:06:27.973Z,4.70
2023-11-19T17:08:59.065Z,4.10
2023-11-19T17:11:30.237Z,4.40
2023-11-19T17:14:01.969Z,5.40
2023-11-19T17:16:32.970Z,4.40
2023-11-19T17:19:04.168Z,4.00
2023-11-19T17:21:35.745Z,4.20
2023-11-19T17:24:08.199Z,3.90
2023-11-19T17:29:13.912Z,4.10
2023-11-19T17:31:45.836Z,5.60
2023-11-19T17:34:17.370Z,3.20
2023-11-19T17:36:48.675Z,4.80
2023-11-19T17:39:20.268Z,5.80
2023-11-19T17:41:51.352Z,5.10
2023-11-19T17:44:23.997Z,6.60
2023-11-19T17:46:55.181Z,4.00
2023-11-19T17:49:26.438Z,10.50
2023-11-19T17:51:57.797Z,9.90
2023-11-19T17:54:28.870Z,11.40
2023-11-19T17:56:59.739Z,4.20
2023-11-19T17:59:31.068Z,4.90
2023-11-19T18:02:03.496Z,7.60
2023-11-19T18:04:38.576Z,5.50
2023-11-19T18:07:10.393Z,3.70
2023-11-19T18:09:42.147Z,6.80
2023-11-19T18:12:16.644Z,5.10
2023-11-19T18:17:22.310Z,4.00
2023-11-19T18:19:53.463Z,5.20
2023-11-19T18:22:25.481Z,5.10
2023-11-19T18:24:56.511Z,4.80
2023-11-19T18:27:27.890Z,5.20
2023-11-19T18:29:59.006Z,4.80
2023-11-19T18:32:30.222Z,6.40
2023-11-19T18:35:01.234Z,5.90
2023-11-19T18:37:32.374Z,4.00
2023-11-19T18:40:03.319Z,5.70
2023-11-19T18:42:35.515Z,6.50
2023-11-19T18:45:09.401Z,4.20
2023-11-19T18:47:40.346Z,4.30
2023-11-19T18:50:12.606Z,6.40
2023-11-19T18:52:43.788Z,4.40
2023-11-19T18:55:15.245Z,5.50
2023-11-19T18:57:46.332Z,4.90
2023-11-19T19:00:19.238Z,4.70
2023-11-19T19:05:27.161Z,4.50
2023-11-19T19:07:59.261Z,4.50
2023-11-19T19:10:30.527Z,4.80
2023-11-19T19:13:01.599Z,4.10
2023-11-19T19:15:32.702Z,5.70
2023-11-19T19:18:04.417Z,5.10
2023-11-19T19:20:35.890Z,4.30
2023-11-19T19:25:38.459Z,4.30
2023-11-19T19:30:45.980Z,5.30
2023-11-19T19:33:17.182Z,4.50
2023-11-19T19:35:48.386Z,3.80
2023-11-19T19:38:19.962Z,4.70
2023-11-19T19:40:51.288Z,5.30
2023-11-19T19:43:22.273Z,4.20
2023-11-19T19:45:55.762Z,4.90
2023-11-19T19:48:26.923Z,4.70
2023-11-19T19:50:58.099Z,5.50
2023-11-19T19:53:29.950Z,4.80
2023-11-19T19:56:01.016Z,4.50
2023-11-19T19:58:33.500Z,3.90
2023-11-19T20:01:05.204Z,5.40
2023-11-19T20:03:37.033Z,5.50
2023-11-19T20:06:12.881Z,4.80
2023-11-19T20:08:44.549Z,4.90
2023-11-19T20:11:15.807Z,6.80
2023-11-19T20:13:46.887Z,5.10
2023-11-19T20:16:18.852Z,4.80
2023-11-19T20:18:50.068Z,3.80
2023-11-19T20:21:21.515Z,4.10
2023-11-19T20:23:52.503Z,4.30
2023-11-19T20:26:23.882Z,4.70
2023-11-19T20:31:29.617Z,4.90
2023-11-19T20:34:02.264Z,5.50
2023-11-19T20:36:33.357Z,4.60
2023-11-19T20:39:04.618Z,4.20
2023-11-19T20:41:35.873Z,4.50
2023-11-19T20:44:09.474Z,6.10
2023-11-19T20:46:40.796Z,4.40
2023-11-19T20:49:12.214Z,4.40
2023-11-19T20:51:43.409Z,4.00
2023-11-19T20:54:15.025Z,4.00
2023-11-19T20:56:46.199Z,4.20
2023-11-19T20:59:20.130Z,4.70
2023-11-19T21:01:51.180Z,4.20
2023-11-19T21:04:22.013Z,4.50
2023-11-19T21:06:55.851Z,3.80
2023-11-19T21:09:27.036Z,5.10
2023-11-19T21:11:58.301Z,3.80
2023-11-19T21:14:29.892Z,4.00
2023-11-19T21:17:01.301Z,4.00
2023-11-19T21:22:08.843Z,3.70
2023-11-19T21:24:39.887Z,6.80
2023-11-19T21:27:12.968Z,6.00
2023-11-19T21:29:44.107Z,4.40
2023-11-19T21:32:15.116Z,7.20
2023-11-19T21:34:46.146Z,5.60
2023-11-19T21:37:17.316Z,5.70
2023-11-19T21:39:48.562Z,6.40
2023-11-19T21:42:19.736Z,6.30
2023-11-19T21:44:50.559Z,6.00
2023-11-19T21:47:21.693Z,6.30
2023-11-19T21:49:55.286Z,6.60
2023-11-19T21:52:26.484Z,6.70
2023-11-19T21:54:57.444Z,6.10
2023-11-19T21:57:28.583Z,5.20
2023-11-19T21:59:59.507Z,5.50
2023-11-19T22:02:30.978Z,6.40
2023-11-19T22:05:02.153Z,7.20
2023-11-19T22:07:33.440Z,5.90
2023-11-19T22:10:05.324Z,7.40
2023-11-19T22:12:36.121Z,8.10
2023-11-19T22:15:08.539Z,7.60
2023-11-19T22:17:39.900Z,6.70
2023-11-19T22:22:46.872Z,8.80
2023-11-19T22:25:18.018Z,6.00
2023-11-19T22:27:49.205Z,5.90
2023-11-19T22:30:20.321Z,6.30
2023-11-19T22:32:52.468Z,5.50
2023-11-19T22:35:23.610Z,6.10
2023-11-19T22:37:54.431Z,5.20
2023-11-19T22:40:25.740Z,6.40
2023-11-19T22:42:56.635Z,5.90
2023-11-19T22:45:27.641Z,6.20
2023-11-19T22:47:58.557Z,4.90
2023-11-19T22:50:29.562Z,5.40
2023-11-19T22:53:01.578Z,5.50
2023-11-19T22:55:32.557Z,5.20
2023-11-19T22:58:04.592Z,5.50
2023-11-19T23:00:37.778Z,5.40
2023-11-19T23:03:08.935Z,5.10
2023-11-19T23:05:40.007Z,4.80
2023-11-19T23:08:12.525Z,4.30
2023-11-19T23:10:43.518Z,5.70
2023-11-19T23:13:14.276Z,4.70
2023-11-19T23:15:45.139Z,5.70
2023-11-19T23:18:15.867Z,5.30
2023-11-19T23:20:47.244Z,6.20
2023-11-19T23:23:18.293Z,4.60
2023-11-19T23:25:50.416Z,5.10
2023-11-19T23:28:21.453Z,4.60
2023-11-19T23:30:52.435Z,5.30
2023-11-19T23:33:24.215Z,4.90
2023-11-19T23:35:55.313Z,4.30
2023-11-19T23:38:26.138Z,4.70
2023-11-19T23:40:56.863Z,4.70
2023-11-19T23:43:27.653Z,4.90
2023-11-19T23:45:58.407Z,4.40
2023-11-19T23:48:30.975Z,5.50
2023-11-19T23:51:01.749Z,4.80
2023-11-19T23:53:32.504Z,5.00
2023-11-19T23:56:03.609Z,5.40
2023-11-19T23:58:34.849Z,6.10
